sensor_id;sensor_type;location;lat;lon;timestamp;P1;durP1;ratioP1;P2;durP2;ratioP2
68910;SDS011;55953;51.650;-0.522;2023-06-14T00:02:02;6.30;;;4.30;;
68910;SDS011;55953;51.650;-0.522;2023-06-14T00:04:31;6.30;;;3.80;;
68910;SDS011;55953;51.650;-0.522;2023-06-14T00:06:59;9.20;;;4.20;;
68910;SDS011;55953;51.650;-0.522;2023-06-14T00:09:27;7.10;;;4.40;;
68910;SDS011;55953;51.650;-0.522;2023-06-14T00:11:55;8.00;;;4.20;;
68910;SDS011;55953;51.650;-0.522;2023-06-14T00:14:23;7.90;;;4.30;;
68910;SDS011;55953;51.650;-0.522;2023-06-14T00:16:50;7.20;;;4.30;;
68910;SDS011;55953;51.650;-0.522;2023-06-14T00:19:20;7.40;;;4.20;;
68910;SDS011;55953;51.650;-0.522;2023-06-14T00:21:48;6.30;;;4.10;;
68910;SDS011;55953;51.650;-0.522;2023-06-14T00:24:16;8.60;;;4.50;;
68910;SDS011;55953;51.650;-0.522;2023-06-14T00:26:44;6.30;;;4.30;;
68910;SDS011;55953;51.650;-0.522;2023-06-14T00:29:12;8.80;;;4.40;;
68910;SDS011;55953;51.650;-0.522;2023-06-14T00:31:40;6.90;;;4.00;;
68910;SDS011;55953;51.650;-0.522;2023-06-14T00:34:08;8.50;;;3.90;;
68910;SDS011;55953;51.650;-0.522;2023-06-14T00:36:37;10.30;;;4.40;;
68910;SDS011;55953;51.650;-0.522;2023-06-14T00:39:04;7.50;;;3.80;;
68910;SDS011;55953;51.650;-0.522;2023-06-14T00:41:32;10.00;;;4.40;;
68910;SDS011;55953;51.650;-0.522;2023-06-14T00:44:00;7.20;;;3.90;;
68910;SDS011;55953;51.650;-0.522;2023-06-14T00:46:28;9.30;;;4.00;;
68910;SDS011;55953;51.650;-0.522;2023-06-14T00:48:56;7.90;;;4.20;;
68910;SDS011;55953;51.650;-0.522;2023-06-14T00:51:26;7.20;;;4.00;;
68910;SDS011;55953;51.650;-0.522;2023-06-14T00:53:55;6.80;;;3.60;;
68910;SDS011;55953;51.650;-0.522;2023-06-14T00:56:23;6.60;;;3.70;;
68910;SDS011;55953;51.650;-0.522;2023-06-14T00:58:51;8.30;;;4.20;;
68910;SDS011;55953;51.650;-0.522;2023-06-14T01:01:19;8.70;;;3.50;;
68910;SDS011;55953;51.650;-0.522;2023-06-14T01:03:47;8.50;;;3.50;;
68910;SDS011;55953;51.650;-0.522;2023-06-14T01:06:23;6.50;;;3.70;;
68910;SDS011;55953;51.650;-0.522;2023-06-14T01:11:56;8.70;;;3.30;;
68910;SDS011;55953;51.650;-0.522;2023-06-14T01:14:31;6.80;;;3.40;;
68910;SDS011;55953;51.650;-0.522;2023-06-14T01:17:02;7.20;;;3.60;;
68910;SDS011;55953;51.650;-0.522;2023-06-14T01:19:30;7.50;;;3.00;;
68910;SDS011;55953;51.650;-0.522;2023-06-14T01:22:02;7.50;;;3.20;;
68910;SDS011;55953;51.650;-0.522;2023-06-14T01:24:30;5.80;;;2.80;;
68910;SDS011;55953;51.650;-0.522;2023-06-14T01:27:02;7.80;;;3.40;;
68910;SDS011;55953;51.650;-0.522;2023-06-14T01:29:31;6.80;;;3.10;;
68910;SDS011;55953;51.650;-0.522;2023-06-14T01:32:01;6.60;;;3.10;;
68910;SDS011;55953;51.650;-0.522;2023-06-14T01:34:31;7.00;;;3.50;;
68910;SDS011;55953;51.650;-0.522;2023-06-14T01:37:00;5.70;;;2.90;;
68910;SDS011;55953;51.650;-0.522;2023-06-14T01:39:31;5.80;;;2.90;;
68910;SDS011;55953;51.650;-0.522;2023-06-14T01:42:00;8.90;;;3.10;;
68910;SDS011;55953;51.650;-0.522;2023-06-14T01:44:29;7.60;;;2.90;;
68910;SDS011;55953;51.650;-0.522;2023-06-14T01:47:01;5.90;;;2.80;;
68910;SDS011;55953;51.650;-0.522;2023-06-14T01:49:29;9.60;;;3.60;;
68910;SDS011;55953;51.650;-0.522;2023-06-14T01:51:57;5.80;;;2.80;;
68910;SDS011;55953;51.650;-0.522;2023-06-14T01:54:25;10.20;;;3.30;;
68910;SDS011;55953;51.650;-0.522;2023-06-14T01:56:53;8.20;;;3.20;;
68910;SDS011;55953;51.650;-0.522;2023-06-14T01:59:22;8.20;;;3.20;;
68910;SDS011;55953;51.650;-0.522;2023-06-14T02:01:49;7.30;;;3.10;;
68910;SDS011;55953;51.650;-0.522;2023-06-14T02:04:17;10.00;;;3.00;;
68910;SDS011;55953;51.650;-0.522;2023-06-14T02:06:47;7.60;;;3.30;;
68910;SDS011;55953;51.650;-0.522;2023-06-14T02:09:15;6.90;;;3.00;;
68910;SDS011;55953;51.650;-0.522;2023-06-14T02:11:43;8.10;;;3.10;;
68910;SDS011;55953;51.650;-0.522;2023-06-14T02:14:10;8.70;;;3.20;;
68910;SDS011;55953;51.650;-0.522;2023-06-14T02:16:39;7.30;;;3.10;;
68910;SDS011;55953;51.650;-0.522;2023-06-14T02:19:08;5.90;;;3.10;;
68910;SDS011;55953;51.650;-0.522;2023-06-14T02:21:36;8.30;;;3.30;;
68910;SDS011;55953;51.650;-0.522;2023-06-14T02:24:05;7.90;;;3.10;;
68910;SDS011;55953;51.650;-0.522;2023-06-14T02:26:34;5.90;;;3.20;;
68910;SDS011;55953;51.650;-0.522;2023-06-14T02:29:02;6.40;;;3.20;;
68910;SDS011;55953;51.650;-0.522;2023-06-14T02:31:29;6.50;;;2.90;;
68910;SDS011;55953;51.650;-0.522;2023-06-14T02:33:57;7.20;;;3.30;;
68910;SDS011;55953;51.650;-0.522;2023-06-14T02:36:25;11.10;;;3.20;;
68910;SDS011;55953;51.650;-0.522;2023-06-14T02:38:53;9.70;;;3.20;;
68910;SDS011;55953;51.650;-0.522;2023-06-14T02:41:21;9.40;;;3.30;;
68910;SDS011;55953;51.650;-0.522;2023-06-14T02:43:49;8.10;;;3.20;;
68910;SDS011;55953;51.650;-0.522;2023-06-14T02:46:17;9.60;;;3.30;;
68910;SDS011;55953;51.650;-0.522;2023-06-14T02:48:45;9.10;;;3.50;;
68910;SDS011;55953;51.650;-0.522;2023-06-14T02:51:13;7.50;;;2.90;;
68910;SDS011;55953;51.650;-0.522;2023-06-14T02:53:41;8.70;;;2.90;;
68910;SDS011;55953;51.650;-0.522;2023-06-14T02:56:09;9.10;;;3.40;;
68910;SDS011;55953;51.650;-0.522;2023-06-14T02:58:38;6.00;;;3.30;;
68910;SDS011;55953;51.650;-0.522;2023-06-14T03:01:07;7.50;;;3.70;;
68910;SDS011;55953;51.650;-0.522;2023-06-14T03:03:35;6.50;;;3.30;;
68910;SDS011;55953;51.650;-0.522;2023-06-14T03:06:03;6.50;;;3.30;;
68910;SDS011;55953;51.650;-0.522;2023-06-14T03:08:34;7.80;;;3.40;;
68910;SDS011;55953;51.650;-0.522;2023-06-14T03:11:10;10.10;;;3.50;;
68910;SDS011;55953;51.650;-0.522;2023-06-14T03:13:38;7.20;;;3.10;;
68910;SDS011;55953;51.650;-0.522;2023-06-14T03:16:06;4.90;;;2.80;;
68910;SDS011;55953;51.650;-0.522;2023-06-14T03:18:36;8.40;;;3.20;;
68910;SDS011;55953;51.650;-0.522;2023-06-14T03:21:05;8.40;;;3.60;;
68910;SDS011;55953;51.650;-0.522;2023-06-14T03:23:37;9.10;;;3.50;;
68910;SDS011;55953;51.650;-0.522;2023-06-14T03:26:05;11.30;;;3.90;;
68910;SDS011;55953;51.650;-0.522;2023-06-14T03:28:33;9.60;;;3.60;;
68910;SDS011;55953;51.650;-0.522;2023-06-14T03:31:01;13.80;;;3.50;;
68910;SDS011;55953;51.650;-0.522;2023-06-14T03:33:31;9.20;;;3.60;;
68910;SDS011;55953;51.650;-0.522;2023-06-14T03:35:59;8.40;;;3.70;;
68910;SDS011;55953;51.650;-0.522;2023-06-14T03:38:27;8.30;;;3.90;;
68910;SDS011;55953;51.650;-0.522;2023-06-14T03:40:55;9.00;;;3.50;;
68910;SDS011;55953;51.650;-0.522;2023-06-14T03:43:23;10.90;;;3.40;;
68910;SDS011;55953;51.650;-0.522;2023-06-14T03:45:51;8.40;;;3.60;;
68910;SDS011;55953;51.650;-0.522;2023-06-14T03:48:19;8.70;;;3.60;;
68910;SDS011;55953;51.650;-0.522;2023-06-14T03:50:47;10.50;;;4.00;;
68910;SDS011;55953;51.650;-0.522;2023-06-14T03:53:15;6.70;;;3.30;;
68910;SDS011;55953;51.650;-0.522;2023-06-14T03:55:47;13.00;;;3.50;;
68910;SDS011;55953;51.650;-0.522;2023-06-14T03:58:19;8.00;;;3.70;;
68910;SDS011;55953;51.650;-0.522;2023-06-14T04:00:47;10.40;;;4.00;;
68910;SDS011;55953;51.650;-0.522;2023-06-14T04:03:15;8.10;;;3.40;;
68910;SDS011;55953;51.650;-0.522;2023-06-14T04:05:43;9.40;;;4.00;;
68910;SDS011;55953;51.650;-0.522;2023-06-14T04:08:12;8.40;;;3.90;;
68910;SDS011;55953;51.650;-0.522;2023-06-14T04:10:42;6.30;;;3.60;;
68910;SDS011;55953;51.650;-0.522;2023-06-14T04:13:09;9.60;;;3.70;;
68910;SDS011;55953;51.650;-0.522;2023-06-14T04:15:40;10.70;;;4.70;;
68910;SDS011;55953;51.650;-0.522;2023-06-14T04:18:13;7.10;;;4.20;;
68910;SDS011;55953;51.650;-0.522;2023-06-14T04:20:40;7.30;;;3.90;;
68910;SDS011;55953;51.650;-0.522;2023-06-14T04:23:17;9.00;;;3.70;;
68910;SDS011;55953;51.650;-0.522;2023-06-14T04:25:46;11.30;;;4.30;;
68910;SDS011;55953;51.650;-0.522;2023-06-14T04:28:14;7.40;;;4.10;;
68910;SDS011;55953;51.650;-0.522;2023-06-14T04:30:47;14.70;;;4.20;;
68910;SDS011;55953;51.650;-0.522;2023-06-14T04:33:17;8.00;;;3.70;;
68910;SDS011;55953;51.650;-0.522;2023-06-14T04:35:45;10.30;;;4.10;;
68910;SDS011;55953;51.650;-0.522;2023-06-14T04:38:16;6.80;;;4.20;;
68910;SDS011;55953;51.650;-0.522;2023-06-14T04:40:44;10.40;;;4.00;;
68910;SDS011;55953;51.650;-0.522;2023-06-14T04:43:16;9.90;;;4.10;;
68910;SDS011;55953;51.650;-0.522;2023-06-14T04:45:47;9.40;;;4.00;;
68910;SDS011;55953;51.650;-0.522;2023-06-14T04:48:15;13.40;;;4.90;;
68910;SDS011;55953;51.650;-0.522;2023-06-14T04:50:48;10.80;;;4.40;;
68910;SDS011;55953;51.650;-0.522;2023-06-14T04:53:20;12.30;;;4.50;;
68910;SDS011;55953;51.650;-0.522;2023-06-14T04:55:53;10.80;;;4.20;;
68910;SDS011;55953;51.650;-0.522;2023-06-14T04:58:21;8.80;;;4.00;;
68910;SDS011;55953;51.650;-0.522;2023-06-14T05:00:49;10.80;;;3.90;;
68910;SDS011;55953;51.650;-0.522;2023-06-14T05:03:17;10.60;;;4.40;;
68910;SDS011;55953;51.650;-0.522;2023-06-14T05:05:45;9.20;;;4.00;;
68910;SDS011;55953;51.650;-0.522;2023-06-14T05:08:13;13.90;;;4.60;;
68910;SDS011;55953;51.650;-0.522;2023-06-14T05:10:41;9.30;;;4.10;;
68910;SDS011;55953;51.650;-0.522;2023-06-14T05:13:09;11.00;;;4.50;;
68910;SDS011;55953;51.650;-0.522;2023-06-14T05:15:38;10.20;;;4.20;;
68910;SDS011;55953;51.650;-0.522;2023-06-14T05:18:06;7.00;;;3.70;;
68910;SDS011;55953;51.650;-0.522;2023-06-14T05:20:36;10.20;;;4.20;;
68910;SDS011;55953;51.650;-0.522;2023-06-14T05:23:09;11.80;;;4.80;;
68910;SDS011;55953;51.650;-0.522;2023-06-14T05:25:44;10.50;;;4.20;;
68910;SDS011;55953;51.650;-0.522;2023-06-14T05:28:12;10.90;;;4.00;;
68910;SDS011;55953;51.650;-0.522;2023-06-14T05:30:40;9.50;;;4.30;;
68910;SDS011;55953;51.650;-0.522;2023-06-14T05:33:08;16.10;;;5.00;;
68910;SDS011;55953;51.650;-0.522;2023-06-14T05:35:36;11.10;;;4.40;;
68910;SDS011;55953;51.650;-0.522;2023-06-14T05:38:05;12.00;;;4.50;;
68910;SDS011;55953;51.650;-0.522;2023-06-14T05:40:35;11.60;;;5.10;;
68910;SDS011;55953;51.650;-0.522;2023-06-14T05:43:03;11.80;;;4.70;;
68910;SDS011;55953;51.650;-0.522;2023-06-14T05:45:31;9.70;;;4.30;;
68910;SDS011;55953;51.650;-0.522;2023-06-14T05:47:59;10.80;;;3.90;;
68910;SDS011;55953;51.650;-0.522;2023-06-14T05:50:27;14.80;;;4.50;;
68910;SDS011;55953;51.650;-0.522;2023-06-14T05:52:54;14.00;;;4.40;;
68910;SDS011;55953;51.650;-0.522;2023-06-14T05:55:22;11.20;;;4.10;;
68910;SDS011;55953;51.650;-0.522;2023-06-14T05:57:50;9.70;;;4.00;;
68910;SDS011;55953;51.650;-0.522;2023-06-14T06:00:20;13.70;;;4.40;;
68910;SDS011;55953;51.650;-0.522;2023-06-14T06:02:48;11.80;;;4.20;;
68910;SDS011;55953;51.650;-0.522;2023-06-14T06:05:17;8.30;;;4.20;;
68910;SDS011;55953;51.650;-0.522;2023-06-14T06:07:46;12.60;;;4.70;;
68910;SDS011;55953;51.650;-0.522;2023-06-14T06:10:13;10.90;;;4.20;;
68910;SDS011;55953;51.650;-0.522;2023-06-14T06:12:42;15.30;;;4.10;;
68910;SDS011;55953;51.650;-0.522;2023-06-14T06:15:10;11.40;;;4.30;;
68910;SDS011;55953;51.650;-0.522;2023-06-14T06:17:40;8.80;;;4.20;;
68910;SDS011;55953;51.650;-0.522;2023-06-14T06:20:23;14.20;;;4.40;;
68910;SDS011;55953;51.650;-0.522;2023-06-14T06:22:58;8.50;;;3.80;;
68910;SDS011;55953;51.650;-0.522;2023-06-14T06:25:27;13.10;;;4.40;;
68910;SDS011;55953;51.650;-0.522;2023-06-14T06:27:55;11.50;;;5.10;;
68910;SDS011;55953;51.650;-0.522;2023-06-14T06:30:26;11.40;;;4.70;;
68910;SDS011;55953;51.650;-0.522;2023-06-14T06:32:54;13.10;;;4.80;;
68910;SDS011;55953;51.650;-0.522;2023-06-14T06:35:23;12.60;;;4.40;;
68910;SDS011;55953;51.650;-0.522;2023-06-14T06:37:51;12.20;;;4.60;;
68910;SDS011;55953;51.650;-0.522;2023-06-14T06:40:20;10.30;;;4.20;;
68910;SDS011;55953;51.650;-0.522;2023-06-14T06:42:48;13.30;;;4.50;;
68910;SDS011;55953;51.650;-0.522;2023-06-14T06:45:18;8.30;;;4.30;;
68910;SDS011;55953;51.650;-0.522;2023-06-14T06:47:46;14.00;;;4.50;;
68910;SDS011;55953;51.650;-0.522;2023-06-14T06:50:14;10.10;;;3.80;;
68910;SDS011;55953;51.650;-0.522;2023-06-14T06:52:43;12.70;;;4.30;;
68910;SDS011;55953;51.650;-0.522;2023-06-14T06:55:12;9.80;;;4.40;;
68910;SDS011;55953;51.650;-0.522;2023-06-14T06:57:41;12.40;;;4.10;;
68910;SDS011;55953;51.650;-0.522;2023-06-14T07:00:09;12.50;;;4.60;;
68910;SDS011;55953;51.650;-0.522;2023-06-14T07:02:38;13.20;;;4.50;;
68910;SDS011;55953;51.650;-0.522;2023-06-14T07:05:06;15.10;;;4.40;;
68910;SDS011;55953;51.650;-0.522;2023-06-14T07:07:34;11.00;;;4.20;;
68910;SDS011;55953;51.650;-0.522;2023-06-14T07:10:03;11.80;;;4.00;;
68910;SDS011;55953;51.650;-0.522;2023-06-14T07:12:32;11.30;;;4.50;;
68910;SDS011;55953;51.650;-0.522;2023-06-14T07:15:02;9.70;;;3.70;;
68910;SDS011;55953;51.650;-0.522;2023-06-14T07:17:30;11.40;;;4.50;;
68910;SDS011;55953;51.650;-0.522;2023-06-14T07:19:58;11.80;;;4.20;;
68910;SDS011;55953;51.650;-0.522;2023-06-14T07:22:26;10.20;;;5.10;;
68910;SDS011;55953;51.650;-0.522;2023-06-14T07:24:54;12.40;;;4.60;;
68910;SDS011;55953;51.650;-0.522;2023-06-14T07:27:22;10.20;;;4.60;;
68910;SDS011;55953;51.650;-0.522;2023-06-14T07:29:50;10.40;;;5.00;;
68910;SDS011;55953;51.650;-0.522;2023-06-14T07:32:18;11.20;;;4.40;;
68910;SDS011;55953;51.650;-0.522;2023-06-14T07:34:45;10.50;;;4.20;;
68910;SDS011;55953;51.650;-0.522;2023-06-14T07:37:13;10.30;;;4.70;;
68910;SDS011;55953;51.650;-0.522;2023-06-14T07:39:41;13.00;;;4.40;;
68910;SDS011;55953;51.650;-0.522;2023-06-14T07:42:09;9.30;;;4.30;;
68910;SDS011;55953;51.650;-0.522;2023-06-14T07:44:38;11.70;;;4.40;;
68910;SDS011;55953;51.650;-0.522;2023-06-14T07:47:06;9.30;;;4.60;;
68910;SDS011;55953;51.650;-0.522;2023-06-14T07:49:34;11.10;;;4.40;;
68910;SDS011;55953;51.650;-0.522;2023-06-14T07:52:02;7.80;;;4.10;;
68910;SDS011;55953;51.650;-0.522;2023-06-14T07:54:30;9.00;;;4.30;;
68910;SDS011;55953;51.650;-0.522;2023-06-14T07:57:00;12.90;;;4.60;;
68910;SDS011;55953;51.650;-0.522;2023-06-14T07:59:28;9.70;;;4.40;;
68910;SDS011;55953;51.650;-0.522;2023-06-14T08:01:56;10.10;;;3.90;;
68910;SDS011;55953;51.650;-0.522;2023-06-14T08:04:24;12.00;;;4.20;;
68910;SDS011;55953;51.650;-0.522;2023-06-14T08:06:52;10.90;;;4.30;;
68910;SDS011;55953;51.650;-0.522;2023-06-14T08:09:20;10.00;;;4.30;;
68910;SDS011;55953;51.650;-0.522;2023-06-14T08:11:48;10.70;;;4.90;;
68910;SDS011;55953;51.650;-0.522;2023-06-14T08:14:16;9.90;;;4.10;;
68910;SDS011;55953;51.650;-0.522;2023-06-14T08:16:44;10.50;;;4.20;;
68910;SDS011;55953;51.650;-0.522;2023-06-14T08:19:12;9.60;;;4.40;;
68910;SDS011;55953;51.650;-0.522;2023-06-14T08:21:40;11.20;;;4.40;;
68910;SDS011;55953;51.650;-0.522;2023-06-14T08:24:08;9.60;;;4.10;;
68910;SDS011;55953;51.650;-0.522;2023-06-14T08:26:35;10.20;;;4.30;;
68910;SDS011;55953;51.650;-0.522;2023-06-14T08:29:04;9.90;;;4.60;;
68910;SDS011;55953;51.650;-0.522;2023-06-14T08:31:34;11.50;;;4.40;;
68910;SDS011;55953;51.650;-0.522;2023-06-14T08:34:02;9.70;;;4.30;;
68910;SDS011;55953;51.650;-0.522;2023-06-14T08:36:35;8.70;;;4.10;;
68910;SDS011;55953;51.650;-0.522;2023-06-14T08:39:03;9.10;;;4.00;;
68910;SDS011;55953;51.650;-0.522;2023-06-14T08:41:32;7.80;;;4.30;;
68910;SDS011;55953;51.650;-0.522;2023-06-14T08:44:00;8.70;;;4.30;;
68910;SDS011;55953;51.650;-0.522;2023-06-14T08:46:31;12.30;;;5.00;;
68910;SDS011;55953;51.650;-0.522;2023-06-14T08:49:02;16.10;;;5.70;;
68910;SDS011;55953;51.650;-0.522;2023-06-14T08:51:32;8.30;;;4.40;;
68910;SDS011;55953;51.650;-0.522;2023-06-14T08:54:04;9.50;;;4.50;;
68910;SDS011;55953;51.650;-0.522;2023-06-14T08:56:32;8.70;;;4.60;;
68910;SDS011;55953;51.650;-0.522;2023-06-14T08:59:01;10.30;;;4.50;;
68910;SDS011;55953;51.650;-0.522;2023-06-14T09:01:33;9.00;;;4.00;;
68910;SDS011;55953;51.650;-0.522;2023-06-14T09:04:03;11.80;;;4.80;;
68910;SDS011;55953;51.650;-0.522;2023-06-14T09:06:33;10.40;;;4.20;;
68910;SDS011;55953;51.650;-0.522;2023-06-14T09:09:00;12.80;;;4.60;;
68910;SDS011;55953;51.650;-0.522;2023-06-14T09:11:30;10.40;;;4.20;;
68910;SDS011;55953;51.650;-0.522;2023-06-14T09:13:58;10.30;;;4.90;;
68910;SDS011;55953;51.650;-0.522;2023-06-14T09:16:26;13.50;;;4.70;;
68910;SDS011;55953;51.650;-0.522;2023-06-14T09:18:54;13.50;;;5.20;;
68910;SDS011;55953;51.650;-0.522;2023-06-14T09:21:24;10.70;;;5.30;;
68910;SDS011;55953;51.650;-0.522;2023-06-14T09:23:52;11.50;;;4.80;;
68910;SDS011;55953;51.650;-0.522;2023-06-14T09:26:21;8.90;;;4.70;;
68910;SDS011;55953;51.650;-0.522;2023-06-14T09:28:50;9.10;;;4.80;;
68910;SDS011;55953;51.650;-0.522;2023-06-14T09:31:19;11.00;;;4.70;;
68910;SDS011;55953;51.650;-0.522;2023-06-14T09:33:49;10.20;;;5.10;;
68910;SDS011;55953;51.650;-0.522;2023-06-14T09:36:21;10.30;;;4.60;;
68910;SDS011;55953;51.650;-0.522;2023-06-14T09:38:57;11.00;;;5.00;;
68910;SDS011;55953;51.650;-0.522;2023-06-14T09:41:35;12.10;;;5.50;;
68910;SDS011;55953;51.650;-0.522;2023-06-14T09:44:07;9.60;;;5.00;;
68910;SDS011;55953;51.650;-0.522;2023-06-14T09:46:44;14.10;;;5.40;;
68910;SDS011;55953;51.650;-0.522;2023-06-14T09:49:12;10.30;;;4.30;;
68910;SDS011;55953;51.650;-0.522;2023-06-14T09:51:43;10.70;;;5.00;;
68910;SDS011;55953;51.650;-0.522;2023-06-14T09:54:16;9.30;;;4.90;;
68910;SDS011;55953;51.650;-0.522;2023-06-14T09:56:48;9.50;;;4.50;;
68910;SDS011;55953;51.650;-0.522;2023-06-14T09:59:21;13.80;;;5.20;;
68910;SDS011;55953;51.650;-0.522;2023-06-14T10:02:05;11.80;;;5.30;;
68910;SDS011;55953;51.650;-0.522;2023-06-14T10:04:37;11.90;;;5.00;;
68910;SDS011;55953;51.650;-0.522;2023-06-14T10:07:10;8.50;;;4.60;;
68910;SDS011;55953;51.650;-0.522;2023-06-14T10:09:38;10.50;;;5.00;;
68910;SDS011;55953;51.650;-0.522;2023-06-14T10:12:08;12.60;;;5.40;;
68910;SDS011;55953;51.650;-0.522;2023-06-14T10:14:37;9.10;;;4.90;;
68910;SDS011;55953;51.650;-0.522;2023-06-14T10:17:12;8.60;;;4.60;;
68910;SDS011;55953;51.650;-0.522;2023-06-14T10:20:26;9.50;;;5.50;;
68910;SDS011;55953;51.650;-0.522;2023-06-14T10:23:00;10.80;;;5.10;;
68910;SDS011;55953;51.650;-0.522;2023-06-14T10:25:33;14.20;;;5.20;;
68910;SDS011;55953;51.650;-0.522;2023-06-14T10:31:23;9.10;;;5.00;;
68910;SDS011;55953;51.650;-0.522;2023-06-14T10:34:12;10.10;;;5.10;;
68910;SDS011;55953;51.650;-0.522;2023-06-14T10:37:03;7.90;;;4.80;;
68910;SDS011;55953;51.650;-0.522;2023-06-14T10:39:42;10.70;;;5.00;;
68910;SDS011;55953;51.650;-0.522;2023-06-14T10:42:13;12.10;;;4.80;;
68910;SDS011;55953;51.650;-0.522;2023-06-14T10:44:52;11.20;;;5.10;;
68910;SDS011;55953;51.650;-0.522;2023-06-14T10:47:35;9.10;;;4.50;;
68910;SDS011;55953;51.650;-0.522;2023-06-14T10:50:07;7.60;;;5.10;;
68910;SDS011;55953;51.650;-0.522;2023-06-14T10:52:41;10.30;;;5.00;;
68910;SDS011;55953;51.650;-0.522;2023-06-14T10:55:15;9.80;;;5.00;;
68910;SDS011;55953;51.650;-0.522;2023-06-14T10:57:48;11.30;;;4.80;;
68910;SDS011;55953;51.650;-0.522;2023-06-14T11:00:25;11.10;;;5.50;;
68910;SDS011;55953;51.650;-0.522;2023-06-14T11:06:12;9.70;;;4.70;;
68910;SDS011;55953;51.650;-0.522;2023-06-14T11:11:35;10.10;;;5.50;;
68910;SDS011;55953;51.650;-0.522;2023-06-14T11:14:04;11.00;;;5.20;;
68910;SDS011;55953;51.650;-0.522;2023-06-14T11:16:32;10.90;;;5.40;;
68910;SDS011;55953;51.650;-0.522;2023-06-14T11:19:01;8.30;;;4.70;;
68910;SDS011;55953;51.650;-0.522;2023-06-14T11:21:34;11.50;;;5.70;;
68910;SDS011;55953;51.650;-0.522;2023-06-14T11:24:10;10.30;;;5.60;;
68910;SDS011;55953;51.650;-0.522;2023-06-14T11:26:40;10.10;;;5.70;;
68910;SDS011;55953;51.650;-0.522;2023-06-14T11:29:08;13.80;;;5.80;;
68910;SDS011;55953;51.650;-0.522;2023-06-14T11:31:36;9.10;;;5.50;;
68910;SDS011;55953;51.650;-0.522;2023-06-14T11:34:05;9.10;;;5.50;;
68910;SDS011;55953;51.650;-0.522;2023-06-14T11:36:34;11.10;;;6.20;;
68910;SDS011;55953;51.650;-0.522;2023-06-14T11:39:04;9.60;;;5.90;;
68910;SDS011;55953;51.650;-0.522;2023-06-14T11:41:41;11.10;;;5.40;;
68910;SDS011;55953;51.650;-0.522;2023-06-14T11:44:11;10.60;;;6.40;;
68910;SDS011;55953;51.650;-0.522;2023-06-14T11:46:39;12.20;;;5.70;;
68910;SDS011;55953;51.650;-0.522;2023-06-14T11:49:07;7.70;;;5.80;;
68910;SDS011;55953;51.650;-0.522;2023-06-14T11:51:37;11.40;;;5.70;;
68910;SDS011;55953;51.650;-0.522;2023-06-14T11:54:06;10.90;;;5.60;;
68910;SDS011;55953;51.650;-0.522;2023-06-14T11:56:36;12.20;;;6.20;;
68910;SDS011;55953;51.650;-0.522;2023-06-14T11:59:05;10.70;;;6.50;;
68910;SDS011;55953;51.650;-0.522;2023-06-14T12:01:36;11.40;;;6.30;;
68910;SDS011;55953;51.650;-0.522;2023-06-14T12:04:06;9.80;;;6.00;;
68910;SDS011;55953;51.650;-0.522;2023-06-14T12:06:34;8.80;;;5.50;;
68910;SDS011;55953;51.650;-0.522;2023-06-14T12:09:07;10.40;;;6.70;;
68910;SDS011;55953;51.650;-0.522;2023-06-14T12:11:40;9.80;;;5.70;;
68910;SDS011;55953;51.650;-0.522;2023-06-14T12:14:09;11.30;;;6.20;;
68910;SDS011;55953;51.650;-0.522;2023-06-14T12:16:39;10.20;;;6.20;;
68910;SDS011;55953;51.650;-0.522;2023-06-14T12:19:12;11.40;;;5.90;;
68910;SDS011;55953;51.650;-0.522;2023-06-14T12:21:43;8.30;;;6.00;;
68910;SDS011;55953;51.650;-0.522;2023-06-14T12:24:16;10.40;;;6.10;;
68910;SDS011;55953;51.650;-0.522;2023-06-14T12:26:45;9.50;;;5.80;;
68910;SDS011;55953;51.650;-0.522;2023-06-14T12:29:14;9.50;;;6.00;;
68910;SDS011;55953;51.650;-0.522;2023-06-14T12:31:42;9.10;;;5.40;;
68910;SDS011;55953;51.650;-0.522;2023-06-14T12:34:10;8.10;;;6.30;;
68910;SDS011;55953;51.650;-0.522;2023-06-14T12:36:38;7.80;;;5.30;;
68910;SDS011;55953;51.650;-0.522;2023-06-14T12:39:12;9.90;;;6.10;;
68910;SDS011;55953;51.650;-0.522;2023-06-14T12:41:41;8.50;;;5.70;;
68910;SDS011;55953;51.650;-0.522;2023-06-14T12:44:10;8.80;;;6.00;;
68910;SDS011;55953;51.650;-0.522;2023-06-14T12:46:40;12.10;;;6.50;;
68910;SDS011;55953;51.650;-0.522;2023-06-14T12:49:16;8.50;;;6.10;;
68910;SDS011;55953;51.650;-0.522;2023-06-14T12:51:44;13.40;;;6.40;;
68910;SDS011;55953;51.650;-0.522;2023-06-14T12:54:12;10.10;;;6.60;;
68910;SDS011;55953;51.650;-0.522;2023-06-14T12:56:47;8.90;;;6.60;;
68910;SDS011;55953;51.650;-0.522;2023-06-14T12:59:15;8.50;;;6.30;;
68910;SDS011;55953;51.650;-0.522;2023-06-14T13:01:42;8.30;;;6.50;;
68910;SDS011;55953;51.650;-0.522;2023-06-14T13:04:11;9.20;;;6.20;;
68910;SDS011;55953;51.650;-0.522;2023-06-14T13:06:39;7.90;;;6.20;;
68910;SDS011;55953;51.650;-0.522;2023-06-14T13:09:07;8.50;;;5.90;;
68910;SDS011;55953;51.650;-0.522;2023-06-14T13:11:36;12.60;;;6.60;;
68910;SDS011;55953;51.650;-0.522;2023-06-14T13:14:04;7.90;;;5.90;;
68910;SDS011;55953;51.650;-0.522;2023-06-14T13:16:52;10.60;;;6.60;;
68910;SDS011;55953;51.650;-0.522;2023-06-14T13:19:20;9.10;;;6.50;;
68910;SDS011;55953;51.650;-0.522;2023-06-14T13:21:48;12.60;;;6.10;;
68910;SDS011;55953;51.650;-0.522;2023-06-14T13:24:16;10.00;;;6.00;;
68910;SDS011;55953;51.650;-0.522;2023-06-14T13:26:44;9.00;;;5.80;;
68910;SDS011;55953;51.650;-0.522;2023-06-14T13:29:12;9.60;;;5.60;;
68910;SDS011;55953;51.650;-0.522;2023-06-14T13:31:40;8.50;;;6.00;;
68910;SDS011;55953;51.650;-0.522;2023-06-14T13:34:08;7.80;;;5.80;;
68910;SDS011;55953;51.650;-0.522;2023-06-14T13:36:36;9.90;;;5.90;;
68910;SDS011;55953;51.650;-0.522;2023-06-14T13:39:03;9.80;;;5.80;;
68910;SDS011;55953;51.650;-0.522;2023-06-14T13:41:31;8.50;;;5.80;;
68910;SDS011;55953;51.650;-0.522;2023-06-14T13:44:01;7.40;;;5.90;;
68910;SDS011;55953;51.650;-0.522;2023-06-14T13:46:31;8.70;;;5.90;;
68910;SDS011;55953;51.650;-0.522;2023-06-14T13:48:59;9.20;;;6.10;;
68910;SDS011;55953;51.650;-0.522;2023-06-14T13:51:28;8.30;;;6.10;;
68910;SDS011;55953;51.650;-0.522;2023-06-14T13:53:56;7.80;;;5.60;;
68910;SDS011;55953;51.650;-0.522;2023-06-14T13:56:24;7.90;;;5.70;;
68910;SDS011;55953;51.650;-0.522;2023-06-14T13:58:52;9.00;;;6.40;;
68910;SDS011;55953;51.650;-0.522;2023-06-14T14:01:21;10.80;;;5.70;;
68910;SDS011;55953;51.650;-0.522;2023-06-14T14:03:50;10.90;;;5.80;;
68910;SDS011;55953;51.650;-0.522;2023-06-14T14:06:18;12.00;;;5.40;;
68910;SDS011;55953;51.650;-0.522;2023-06-14T14:08:46;8.10;;;5.90;;
68910;SDS011;55953;51.650;-0.522;2023-06-14T14:11:13;8.50;;;5.70;;
68910;SDS011;55953;51.650;-0.522;2023-06-14T14:13:44;9.80;;;5.70;;
68910;SDS011;55953;51.650;-0.522;2023-06-14T14:16:12;7.50;;;5.60;;
68910;SDS011;55953;51.650;-0.522;2023-06-14T14:18:40;8.30;;;6.20;;
68910;SDS011;55953;51.650;-0.522;2023-06-14T14:21:09;7.90;;;5.60;;
68910;SDS011;55953;51.650;-0.522;2023-06-14T14:23:37;7.30;;;5.50;;
68910;SDS011;55953;51.650;-0.522;2023-06-14T14:26:08;7.80;;;5.70;;
68910;SDS011;55953;51.650;-0.522;2023-06-14T14:28:36;7.70;;;5.70;;
68910;SDS011;55953;51.650;-0.522;2023-06-14T14:31:04;6.80;;;5.60;;
68910;SDS011;55953;51.650;-0.522;2023-06-14T14:33:32;7.80;;;5.70;;
68910;SDS011;55953;51.650;-0.522;2023-06-14T14:36:00;7.70;;;5.20;;
68910;SDS011;55953;51.650;-0.522;2023-06-14T14:38:31;8.30;;;5.80;;
68910;SDS011;55953;51.650;-0.522;2023-06-14T14:40:59;7.70;;;5.70;;
68910;SDS011;55953;51.650;-0.522;2023-06-14T14:43:27;9.20;;;5.70;;
68910;SDS011;55953;51.650;-0.522;2023-06-14T14:45:58;9.10;;;5.40;;
68910;SDS011;55953;51.650;-0.522;2023-06-14T14:48:26;8.50;;;5.80;;
68910;SDS011;55953;51.650;-0.522;2023-06-14T14:50:54;8.20;;;6.00;;
68910;SDS011;55953;51.650;-0.522;2023-06-14T14:53:22;9.20;;;6.00;;
68910;SDS011;55953;51.650;-0.522;2023-06-14T14:55:51;9.20;;;6.10;;